KGFL/GFL METAR and TAF weather

Enter ICAO airport designator
Station Type Date Time Source
KGFL METAR 2019/02/21 15:53 UTC NOAA

KGFL 211553Z AUTO 21006KT 10SM OVC041 01/M01 A2986 RMK AO2 SLP122 T00111006


Station Type Date Time Source
KGFL Decoded METAR 2019/02/21 15:53 UTC NOAA

FLOYD BENNETT MEMORIAL AIRPORT , NY, United States (KGFL) 43-20N 073-37W 103M
Feb 21, 2019 - 10:53 AM EST / 2019.02.21 1553 UTC
Wind: from the SSW (210 degrees) at 7 MPH (6 KT):0
Visibility: 10 mile(s):0
Sky conditions: overcast
Temperature: 34.0 F (1.1 C)
Windchill: 28 F (-2 C):1
Dew Point: 30.9 F (-0.6 C)
Relative Humidity: 88%
Pressure (altimeter): 29.86 in. Hg (1011 hPa)
ob: KGFL 211553Z AUTO 21006KT 10SM OVC041 01/M01 A2986 RMK AO2 SLP122 T00111006
cycle: 16

Station Type Date Time Source
KGFL TAF 2019/02/21 14:18 UTC NOAA

TAF
AMD KGFL 211416Z 2114/2212 19004KT 6SM BR SCT004 OVC015
TEMPO 2114/2116 2SM -FZDZSN OVC004
FM211600 25013G22KT P6SM BKN035
FM220300 27008KT P6SM BKN050
FM220800 32006KT P6SM BKN035


Example: see airport list